PAKN/King Salmon -> PANC/Anchorage   'Low Alt Weather Briefingf
 
********  FA Hazards and Flight Precautions  ********
ANCH FA 080745
AK SRN HLF EXCP SE AK...
.
AIRMETS VALID UNTIL 081400
TS IMPLY POSSIBLE SEV OR GREATER TURB SEV ICE LLWS AND IFR CONDS.
NON MSL HEIGHTS NOTED BY AGL OR CIG.
.
SYNOPSIS VALID UNTIL 090200
A QSTNR LOW PRES TROF ALG THE W SLOPES OF THE KUSKOKWIM MTS WL PRST.
WK HI PRES WL PRST ALG THE N GULF COAST THRU 14Z..THEN DSIPT. A WK
E-W ORIENTED POLAR FRONTAL SYSTEM WL REMAIN STRETCHED OUT ABOUT 150
NM S OF THE ALUTN ISLANDS. 
.
COOK INLET AND SUSITNA VLY AB...VALID UNTIL 082000
...CLOUDS/WX...
***AIRMET MT OBSC***N MERRILL PASS..AK RANGE OCNL OBSC IN CLDS.
IMPR...
SCT035 SCT-BKN080 TOPS 160 LYRS ABV TOPS FL250. OCNL BKN040 LYRS ABV
TOPS 150 -SHRA. AK RANGE ..ISOL BKN020 VIS 4SM -RA BR. 
OTLK VALID 082000-091400...VFR.
PASSES...
  LK CLARK..VFR. ISOL SHRA.
  MERRILL..WINDY..VFR. ISOL MVFR CIG RA BR.
  RAINY..PORTAGE..MVFR CIG OCNL IFR CIG RA BR.
...TURB...
NIL SIG.
...ICE AND FZLVL...
NIL SIG. FZLVL 040 S SLPG TO 070 N.
.
COPPER RIVER BASIN AC...VALID UNTIL 082000
...CLOUDS/WX...
SCT045 BKN070 TOPS 140. ALG MTS..ISOL CIG BKN025 -SHRA.
OTLK VALID 082000-091400...VFR.
PASS...
  TAHNETA...VFR. ISOL -SHRA.
...TURB...
NIL SIG.
...ICE AND FZLVL...
NIL SIG. FZLVL 060.
.
CNTRL GLF CST AD...VALID UNTIL 082000
...CLOUDS/WX...
***AIRMET MT OBSC***MTS OCNL OBSC IN CLDS. NC...
SCT025 SCT-BKN040 TOPS 090 LYRS ABV TOPS FL200.
OVR/VCY MTS..OCNL BKN035 -SHRA.
PRINCE WILLIAM SOUND..ISOL BKN015 VIS 5SM -SHRA.
OTLK VALID 082000-091400...VFR.
...TURB...
NIL SIG.
...ICE AND FZLVL...
NIL SIG. FZLVL 040.
.
KODIAK IS AE...VALID UNTIL 082000
...CLOUDS/WX...
***AIRMET MT OBSC***MTS OCNL OBSC IN CLDS. NC...
SCT025 BKN040 TOPS 080. OCNL BKN025 ISOL -SHRA.
OTLK VALID 082000-091400...MVFR CIG SHRA.
...TURB...
NIL SIG.
...ICE AND FZLVL...
NIL SIG. FZLVL 035.
.
 
 
 
********  FA Synopsis and VFR Clouds/Weather  ********
ANCC FA 080745
AK SRN HLF EXCP SE AK...
.
AIRMETS VALID UNTIL 081400
TS IMPLY PSBL SEV OR GREATER TURB SEV ICE LLWS AND IFR CONDS.
NON MSL HEIGHTS NOTED BY AGL OR CIG.
.
KUSKOKWIM VLY AF...VALID UNTIL 082000
...CLOUDS/WX...
***AIRMET MT OBSC***MTS OCNL OBSC IN CLDS/PCPN. NC...
SCT020 BKN040 BKN070 LYRS ABV TOPS FL220. OCNL BKN020 -SHRA.
OTLK VALID 082000-091400...VFR SHRA/TSRA.
...TURB...
NIL SIG.
...ICE AND FZLVL...
NIL SIG. FZLVL 060.
.
YKN-KUSKOKWIM DELTA AG...VALID UNTIL 082000
...CLOUDS/WX...
***AIRMET IFR/MT OBSC***OCNL CIG BLW 010 TOPS 025 VIS BLW 3SM BR.
  NC...  OTRW..
FEW003 SCT050 BKN070 LYRS ABV TOPS 160. OCNL BKN045 -SHRA.
OTLK VALID 082000-091400...OFSHR..IFR CIG BR. INLAND..SHRA/TSRA.
...TURB...
NIL SIG.
...ICE AND FZLVL...
NIL SIG. FZLVL 070.
.
BRISTOL BAY AH...VALID UNTIL 082000
...CLOUDS/WX...
SCT035 BKN070 TOPS 140 SEPD LYRS ABV TO FL340. OCNL BKN035 TOPS 150
SHRA. N COAST..ISOL BKN015 VIS 4SM -RA BR.
OTLK VALID 082000-091400...N COAST..MVFR CIG RA. ELSW..VFR SHRA.
...TURB...
NIL SIG.
...ICE AND FZLVL...
NIL SIG. FZLVL 050.
.
AK PEN AI...VALID UNTIL 082000
...CLOUDS/WX...
SCT030 BKN050 BKN080 TOPS 140. ISOL BKN030 VIS 5SM -RA.
OTLK VALID 082000-091400...MVFR CIG RA/DZ.
...TURB...
NIL SIG.
...ICE AND FZLVL...
NIL SIG. FZLVL 035.
.
UNIMAK PASS TO ADAK AJ...VALID UNTIL 082000
...CLOUDS/WX...
***AIRMET IFR/MT OBSC***OCNL CIG BLW 010 ISOL VIS BLW 3SM -DZ BR.
IMPR...  OTRW..BKN015 OVC030 TOPS 050. ISOL VIS 5SM -DZ BR.
OTLK VALID 082000-091400...MVFR CIG DZ BR.
...TURB...
NIL SIG.
...ICE AND FZLVL...
NIL SIG. FZLVL 060 E SLOPING TO 090 W.
.
DSH JUN 2001
 
 
 
********  Severe Weather Warnings  ********
current report not available
 
********  SIGMETs  ********
current report not available
 
********  Convective SIGMET  ********
current report not available
 
********  Center Weather Advisory  ********
current report not available
 
********  AIRMETs  ********
ANCS WA 080745
AIRMET SIERRA FOR IFR AND MT OBSC VALID UNTIL 081400
.
COOK INLET AND SUSITNA VLY AB
N MERRILL PASS..AK RANGE OCNL OBSC IN CLDS. IMPR.
.
CNTRL GLF CST AD
MTS OCNL OBSC IN CLDS. NC.
.
KODIAK IS AE
MTS OCNL OBSC IN CLDS. NC.
.
KUSKOKWIM VLY AF
MTS OCNL OBSC IN CLDS/PCPN. NC.
.
YKN-KUSKOKWIM DELTA AG
OCNL CIG BLW 010 TOPS 025 VIS BLW 3SM BR. NC.
.
UNIMAK PASS TO ADAK AJ
OCNL CIG BLW 010 ISOL VIS BLW 3SM -DZ BR. IMPR.
.
 
ANCT WA 080745
AIRMET TANGO FOR TURB/STG SFC WINDS VALID UNTIL 081400
.
NONE.
.
 
ANCZ WA 080745
AIRMET ZULU FOR ICING VALID UNTIL 081400
.
NONE.
.
 
 
 
********  Surface Observations  ********
no reports available for PAKN
METAR PAKN 081052Z 17006KT 10SM SCT060 BKN110 06/05 A3010 RMK AO2 
    SLP192 T00610050
METAR PAIL 081053Z AUTO 13005KT 10SM BKN065 08/06 A3016 RMK AO2 
    SLP215 T00830056 TSNO
no reports available for LVR
METAR PASX 081055Z AUTO 00000KT 10SM CLR 03/01 A3018 RMK AO1 TSNO
METAR PAEN 081053Z AUTO 09004KT 3SM BR FEW001 SCT090 03/03 A3016 RMK 
    AO2 SLP214 T00330033 TSNO
SPECI PAEN 081107Z AUTO 00000KT 1 3/4SM BR CLR 03/03 A3015 RMK AO2 
    TSNO
no reports available for PANC
METAR PANC 081053Z VRB05KT 10SM SCT040 BKN055 BKN090 09/08 A3014 RMK 
    AO2 RAB0957E09 SLP208 P0001 T00940083
METAR PALH 081053Z 11003KT 10SM BKN046 09/08 A3016 RMK AO2 SLP213 
    T00890078
METAR PAMR 081053Z 09005KT 10SM FEW048 SCT075 SCT095 09/07 A3015 RMK 
    AO2 SLP210 T00890067
no reports available for PAMR
no reports available for PAED
PAED 081055Z 06006KT 25SM FEW050 FEW070 SCT090 08/06
     A3016 RMK SLP212 8/470 9/130
no reports available for PAFR
no reports available for FRN
METAR PABV 081055Z AUTO 00000KT 10SM FEW044 08/05 A3016 RMK AO1
 
********  Pilot Reports  ********
current report not available
 
********  Radar Summaries  ********
current report not available
 
********  Terminal Forecasts  ********
PAKN 080535Z 080606 28006KT P6SM SCT040 BKN080
    TEMPO 0610 -SHRA BKN040
    BECMG 1012 15005KT
    FM2100 26008KT P6SM SCT030 BKN080
    TEMPO 2106 -SHRA BKN030
TAF PAIL 080535Z 080606 14010KT P6SM SCT050 BKN140 BECMG 0810
     VRB03KT
     FM2000 14010KT P6SM SCT035 BKN100 PROB40 2006 -SHRA
     BKN035
TAF AMD PAEN 080739Z 080806 VRB03KT P6SM SCT060 BKN110 TEMPO 1018
     3SM BR SCT004
     FM1800 VRB03KT P6SM SCT035 SCT120 BECMG 1921 22008KT
TAF PANC 080535Z 080606 16014G24KT P6SM SCT070 SCT100 BKN160 BECMG
     0810 17006KT TEMPO 1217 4SM BR SCT004
     FM2000 24010G20KT P6SM SCT060 SCT150
PAED 080404 15010KT 9999 FEW040 SCT060 BKN100 BKN200 QNH3010INS
    BECMG 0506 VRB05KT 9999 SCT060 SCT120 BKN200 QNH3008INS WND
    24010G20 AFT 23 T20/01Z T08/13Z
 
********  FD Winds Aloft Forecast  ********
DATA BASED ON 080000Z                                                REQUESTED
VALID 081200Z   FOR USE 0900-1800Z. TEMPS NEG ABV 24000              ALTITUDE
FT  3000   6000   9000  12000   18000  24000  30000  34000  39000  12000
AKN 1905 9900-03 9900-08 0710-14 0523-26 0439-37 044851 043450 051745 0710-14
ADQ 0612 0715-04 0711-09 0810-15 1011-27 1111-39 091352 071148 050943 0810-15
HOM 0805 0811-03 0813-09 0913-14 0913-27 1012-39 081952 071848 071344 0913-14
ANC 1407 1306-02 1208-08 1011-14 1013-27 1018-38 082550 082351 081645 1011-14

TKA 2008 2211-02 2208-07 9900-13 0916-26 0827-36 082850 072952 081946 9900-13

Ads by TOK2